Terminal Aerodrome Forecast
Issued by NWS

Home | Current Version | Previous Version | Text Only | Print | Product List | Glossary On
Versions: 1 2 3 4 5 6 7 8 9 10 11 12 13 14 15 16 17 18 19 20
401
FTUS43 KDLH 201729
TAFHYR
TAF
KHYR 201729Z 2018/2118 18012KT P6SM FEW080
     FM210900 18008KT 4SM BR VCTS SCT040CB SCT080
     FM211300 21005KT P6SM VCSH SCT025 BKN050=

USA.gov is the U.S. government's official web portal to all federal, state and local government web resources and services.